Hovedside
METAR-TAF:

METAR-TAF

Lufthavner :

Ivato lufthavn

Antananarivo, Madagaskar

breddegrad: 18-48S, lengdegrad: 047-29E, høyde over havet: 1279 m

Gjeldene værobservasjon

Denne rapporten ble laget for 30 minutter siden, klokken 03:30 UTC
Vind 6 kt fra Øst-sørøst
Temperatur 10°C
Luftfuktighet 87%
Trykk 1025 hPa
Sikt: 8000 m
Få skyer i en høyde av 2000 ft

METAR: FMMI 200330Z 11006KT 8000 FEW020 10/08 Q1025 NOSIG

Tid: 07:00 (04:00 UTC)

Varsel

Denne rapporten ble laget for 5 timer og 0 minutter siden, klokken 23:00 UTC
Varsel gyldig fra 20. klokken 00 UTC til 21. klokken 06 UTC
Vind 8 kt fra Øst-sørøst
Sikt 10 km eller mer
Få skyer i en høyde av 1700 ft
Sannsynlighet 30%
fra 20. klokken 02 UTC til 20. klokken 06 UTC
Sikt: 2000 m
dis
Sannsynlighet 30%
fra 20. klokken 14 UTC til 20. klokken 18 UTC
Sikt: 4000 m
røyk

TAF: FMMI 192300Z 2000/2106 12008KT 9999 FEW017 PROB30 2002/2006 2000 BR PROB30 2014/2018 4000 FU

Værobservasjoner og værvarsel for over 4000 flyplasser (METAR- og TAF-rapporter).

Tilgjengelige stasjoner er representert av de røde og gule prikkene på kartet.

Hold musepekeren over prikken for å se navnet på stasjonen.

Klikk så for å se værobservasjoner og -varsler.

For å forandre kartet kan du klikke på den grønne knappen med svart kryss for å zoome inn, på den grønne knappen med strek for å zoome ut, eller på de grønne pilene for å se tilstøtende kart.


METAR-TAF: